»·PEaware :: N62DD KDEN-KTEX

N62DD :: KDEN-KTEX

FLIGHT INFORMATION

Flight Status: Arrived
Operator: Privately registered:
United States
More flights under this callsign
Pilot: Diego B. (33492)
Aircraft: Diamond DA-62
(DA62)
More flights by this aircraft type
Origin: KDEN Denver Intl
United States
Destination: KTEX Telluride Regl
United States
More flights between these airports :: More routes between these airports
Route:
File this flight plan on PilotEdge
Remarks: ff
Altitude:
(Current/Filed)
0ft
Speed:
(Current/Filed)
0kts
Departed: 26-Sep-23 03:54 PM
Arrived: 26-Sep-23 05:03 PM
Distance/Time
Traveled:
189nm/1:09
Distance/Time
To Go:
Arrived

Flight Plot

Page will automatically refresh every two minutes.

Flight plan parsing failed; only flown route is shown


Map Options




Map Legend


Flown Route
Filed Route
Departure Airport
Arrival Airport
Navaid (VOR, NDB)
Fix

Horizontal Profiles

Position Reports

Time Latitude Longitude Heading Altitude Ground
Speed
26-Sep-23 15:37 39.839397 -104.665025 180 5360ft 0kts
26-Sep-23 15:38 39.839398 -104.665025 180 5360ft 0kts
26-Sep-23 15:39 39.839400 -104.665025 180 5360ft 0kts
26-Sep-23 15:40 39.839400 -104.665024 180 5360ft 0kts
26-Sep-23 15:41 39.839402 -104.665024 180 5360ft 0kts
26-Sep-23 15:42 39.839402 -104.665024 180 5360ft 0kts
26-Sep-23 15:43 39.839403 -104.665024 180 5360ft 0kts
26-Sep-23 15:44 39.839387 -104.664572 89 5360ft 5kts
26-Sep-23 15:45 39.841085 -104.662495 0 5360ft 15kts
26-Sep-23 15:46 39.846610 -104.662455 359 5360ft 21kts
26-Sep-23 15:47 39.852842 -104.662362 0 5360ft 22kts
26-Sep-23 15:48 39.859272 -104.662311 358 5360ft 23kts
26-Sep-23 15:49 39.861073 -104.661544 93 5360ft 0kts
26-Sep-23 15:50 39.861073 -104.661546 93 5360ft 0kts
26-Sep-23 15:50 39.861074 -104.661547 92 5360ft 0kts
26-Sep-23 15:52 39.861074 -104.661548 92 5360ft 0kts
26-Sep-23 15:53 39.861074 -104.661550 92 5360ft 0kts
26-Sep-23 15:54 39.850473 -104.660560 178 5584ft 95kts
26-Sep-23 15:55 39.826177 -104.679074 253 6944ft 129kts
26-Sep-23 15:55 39.818200 -104.717623 253 8039ft 131kts
26-Sep-23 15:56 39.803364 -104.767952 234 8499ft 176kts
26-Sep-23 15:57 39.773854 -104.822460 234 8938ft 171kts
26-Sep-23 15:59 39.745455 -104.874049 233 10603ft 135kts
26-Sep-23 16:00 39.724544 -104.911306 233 11988ft 120kts
26-Sep-23 16:00 39.708494 -104.939521 233 13154ft 115kts
26-Sep-23 16:01 39.689452 -104.972779 234 14466ft 115kts
26-Sep-23 16:02 39.669821 -105.006233 234 15657ft 117kts
26-Sep-23 16:03 39.648732 -105.041422 233 16463ft 144kts
26-Sep-23 16:04 39.620644 -105.089054 234 16458ft 180kts
26-Sep-23 16:05 39.589575 -105.142081 233 16441ft 187kts
26-Sep-23 16:06 39.558005 -105.196243 233 16422ft 190kts
26-Sep-23 16:07 39.526182 -105.251260 234 16406ft 190kts
26-Sep-23 16:08 39.494387 -105.306239 233 16395ft 189kts
26-Sep-23 16:09 39.462830 -105.360991 234 16406ft 190kts
26-Sep-23 16:10 39.431184 -105.415918 234 16419ft 189kts
26-Sep-23 16:11 39.399802 -105.470622 234 16402ft 190kts
26-Sep-23 16:12 39.368449 -105.525577 234 16402ft 187kts
26-Sep-23 16:13 39.337268 -105.580289 234 16400ft 191kts
26-Sep-23 16:14 39.306046 -105.635340 234 16401ft 189kts
26-Sep-23 16:15 39.274844 -105.690682 234 16395ft 190kts
26-Sep-23 16:16 39.243890 -105.745760 234 16386ft 189kts
26-Sep-23 16:17 39.212943 -105.801100 234 16384ft 191kts
26-Sep-23 16:18 39.181820 -105.857014 234 16377ft 192kts
26-Sep-23 16:19 39.150647 -105.913228 234 16426ft 193kts
26-Sep-23 16:20 39.119397 -105.969712 234 16465ft 195kts
26-Sep-23 16:21 39.087828 -106.026715 234 16503ft 196kts
26-Sep-23 16:22 39.056207 -106.083834 234 16524ft 197kts
26-Sep-23 16:23 39.024421 -106.141197 234 16502ft 197kts
26-Sep-23 16:24 38.992429 -106.198914 234 16527ft 199kts
26-Sep-23 16:25 38.960408 -106.256581 234 16531ft 198kts
26-Sep-23 16:26 38.928352 -106.314182 234 16528ft 198kts
26-Sep-23 16:27 38.896222 -106.371971 234 16513ft 198kts
26-Sep-23 16:28 38.864064 -106.430043 234 16487ft 198kts
26-Sep-23 16:29 38.831145 -106.486458 230 16459ft 198kts
26-Sep-23 16:30 38.796377 -106.540854 230 16422ft 196kts
26-Sep-23 16:31 38.761794 -106.595284 230 16403ft 197kts
26-Sep-23 16:32 38.727332 -106.649988 230 16442ft 199kts
26-Sep-23 16:33 38.692859 -106.705066 230 16481ft 197kts
26-Sep-23 16:34 38.658421 -106.760396 230 16518ft 198kts
26-Sep-23 16:35 38.624135 -106.815822 230 16562ft 198kts
26-Sep-23 16:36 38.590053 -106.871113 230 16591ft 199kts
26-Sep-23 16:37 38.555948 -106.926590 230 16593ft 198kts
26-Sep-23 16:38 38.521793 -106.982037 230 16592ft 198kts
26-Sep-23 16:39 38.487981 -107.037029 230 16591ft 198kts
26-Sep-23 16:40 38.454358 -107.091790 230 16546ft 197kts
26-Sep-23 16:41 38.420604 -107.147611 232 16506ft 196kts
26-Sep-23 16:42 38.388240 -107.204842 232 16467ft 196kts
26-Sep-23 16:43 38.356320 -107.261495 232 16430ft 197kts
26-Sep-23 16:44 38.324501 -107.317912 233 16406ft 196kts
26-Sep-23 16:45 38.292380 -107.374491 233 16407ft 196kts
26-Sep-23 16:46 38.259738 -107.431526 233 16194ft 204kts
26-Sep-23 16:47 38.226680 -107.488705 233 16196ft 197kts
26-Sep-23 16:48 38.194115 -107.544683 233 16198ft 197kts
26-Sep-23 16:49 38.161443 -107.600471 233 16249ft 196kts
26-Sep-23 16:50 38.129238 -107.655247 232 16302ft 195kts
26-Sep-23 16:51 38.096942 -107.709951 233 16368ft 195kts
26-Sep-23 16:52 38.064692 -107.764469 233 15975ft 187kts
26-Sep-23 16:53 38.033653 -107.816694 233 15312ft 182kts
26-Sep-23 16:54 38.003745 -107.867147 233 14480ft 182kts
26-Sep-23 16:55 37.966493 -107.910451 199 13289ft 186kts
26-Sep-23 16:56 37.917448 -107.923175 193 11570ft 166kts
26-Sep-23 16:57 37.919205 -107.955577 8 10520ft 138kts
26-Sep-23 16:58 37.939559 -107.918760 72 10223ft 129kts
26-Sep-23 16:59 37.933649 -107.877184 109 10408ft 115kts
26-Sep-23 17:00 37.946846 -107.869317 268 10033ft 115kts
26-Sep-23 17:01 37.952748 -107.903714 282 9055ft 70kts
26-Sep-23 17:02 37.952670 -107.903337 106 9055ft 33kts
26-Sep-23 17:03 37.953677 -107.902642 282 9063ft 15kts
26-Sep-23 17:04 37.955081 -107.902618 106 9064ft 0kts
26-Sep-23 17:05 37.955081 -107.902619 106 9064ft 0kts
26-Sep-23 17:06 37.955081 -107.902620 106 9064ft 0kts
26-Sep-23 17:07 37.955081 -107.902621 106 9064ft 0kts
26-Sep-23 17:08 37.955082 -107.902623 106 9064ft 0kts
26-Sep-23 17:09 37.955082 -107.902625 107 9064ft 0kts
26-Sep-23 17:10 37.955082 -107.902626 107 9064ft 0kts

Navigation Log

Ident Type
Flight plan parsing failed, navigation log unavailable